Time;durP1;ratioP1;P1;durP2;ratioP2;P2;SDS_P1;SDS_P2;PMS_P1;PMS_P2;Temp;Humidity;BMP_temperature;BMP_pressure;BME280_temperature;BME280_humidity;BME280_pressure;Samples;Min_cycle;Max_cycle;Signal;HPM_P1;HPM_P2
2022/07/29 00:02:19;;;;;;;141.50;134.50;;;;;;;;;;5038782;28;20087;-66
2022/07/29 00:04:45;;;;;;;158.13;150.35;;;;;;;;;;5037098;28;20036;-66
2022/07/29 00:07:10;;;;;;;134.75;128.10;;;;;;;;;;5039800;28;20095;-67
2022/07/29 00:09:35;;;;;;;137.07;130.32;;;;;;;;;;5039656;28;20037;-67
2022/07/29 00:12:01;;;;;;;138.55;131.73;;;;;;;;;;5036575;28;20036;-67
2022/07/29 00:14:27;;;;;;;130.43;124.00;;;;;;;;;;5042912;28;20067;-65
2022/07/29 00:16:53;;;;;;;124.97;118.80;;;;;;;;;;5037509;28;20131;-66
2022/07/29 00:19:18;;;;;;;132.98;126.40;;;;;;;;;;5036887;28;20028;-66
2022/07/29 00:21:43;;;;;;;136.90;130.18;;;;;;;;;;5041520;28;20041;-66
2022/07/29 00:24:09;;;;;;;128.52;122.20;;;;;;;;;;5044123;28;20040;-66
2022/07/29 00:26:34;;;;;;;124.50;118.38;;;;;;;;;;5046501;28;20183;-66
2022/07/29 00:29:01;;;;;;;119.20;113.32;;;;;;;;;;5036560;28;20627;-66
2022/07/29 00:31:26;;;;;;;101.65;96.68;;;;;;;;;;5040083;28;20030;-66
2022/07/29 00:33:52;;;;;;;72.15;68.38;;;;;;;;;;5042709;28;20033;-65
2022/07/29 00:36:17;;;;;;;102.90;97.82;;;;;;;;;;5044143;28;20089;-65
2022/07/29 00:38:45;;;;;;;81.30;77.25;;;;;;;;;;5040331;28;20092;-65
2022/07/29 00:41:11;;;;;;;101.78;96.78;;;;;;;;;;5047406;28;20458;-64
2022/07/29 00:43:36;;;;;;;112.63;107.07;;;;;;;;;;5044502;28;20037;-65
2022/07/29 00:46:02;;;;;;;126.00;119.78;;;;;;;;;;5041382;28;20032;-65
2022/07/29 00:48:27;;;;;;;92.88;88.30;;;;;;;;;;5045527;28;20370;-65
2022/07/29 00:50:52;;;;;;;127.13;120.88;;;;;;;;;;5042642;28;20152;-65
2022/07/29 00:53:19;;;;;;;112.85;107.32;;;;;;;;;;5044504;28;20060;-65
2022/07/29 00:55:45;;;;;;;110.60;105.18;;;;;;;;;;5039267;28;20044;-65
2022/07/29 00:58:12;;;;;;;107.90;102.60;;;;;;;;;;5040213;28;20013;-65
2022/07/29 01:00:40;;;;;;;111.95;106.47;;;;;;;;;;5039903;28;20039;-64
2022/07/29 01:03:06;;;;;;;97.97;92.97;;;;;;;;;;5037573;28;20431;-65
2022/07/29 01:05:32;;;;;;;99.28;94.38;;;;;;;;;;5039550;28;20158;-65
2022/07/29 01:07:57;;;;;;;101.47;96.30;;;;;;;;;;5044403;28;20025;-66
2022/07/29 01:10:24;;;;;;;108.95;103.63;;;;;;;;;;5044017;28;20037;-66
2022/07/29 01:12:51;;;;;;;100.65;94.68;;;;;;;;;;5040118;28;20052;-66
2022/07/29 01:15:17;;;;;;;94.40;89.72;;;;;;;;;;5039772;28;20398;-66
2022/07/29 01:17:53;;;;;;;103.55;98.47;;;;;;;;;;5046024;28;20033;-66
2022/07/29 01:20:28;;;;;;;91.13;86.63;;;;;;;;;;5037412;28;20115;-66
2022/07/29 01:23:06;;;;;;;89.00;84.57;;;;;;;;;;5043317;28;20447;-66
2022/07/29 01:25:56;;;;;;;95.13;90.40;;;;;;;;;;5046870;28;20663;-66
2022/07/29 01:29:14;;;;;;;85.57;81.38;;;;;;;;;;5039647;28;20478;-66
2022/07/29 01:31:48;;;;;;;76.63;72.82;;;;;;;;;;5027644;28;20049;-66
2022/07/29 01:34:42;;;;;;;77.78;73.93;;;;;;;;;;5040963;28;20354;-66
2022/07/29 01:37:17;;;;;;;72.50;68.88;;;;;;;;;;5042598;28;20084;-66
2022/07/29 01:39:46;;;;;;;87.07;82.75;;;;;;;;;;5039692;28;20041;-66
2022/07/29 01:42:24;;;;;;;84.70;80.53;;;;;;;;;;5038461;28;20461;-66
2022/07/29 01:44:58;;;;;;;92.22;87.70;;;;;;;;;;5037291;28;20047;-66
2022/07/29 01:47:30;;;;;;;104.80;99.47;;;;;;;;;;5040958;28;20310;-66
2022/07/29 01:49:59;;;;;;;100.07;95.07;;;;;;;;;;5039289;28;20466;-66
2022/07/29 01:52:39;;;;;;;94.53;89.90;;;;;;;;;;5025256;28;20379;-58
2022/07/29 01:55:11;;;;;;;97.57;92.72;;;;;;;;;;5035111;28;20185;-58
2022/07/29 01:57:38;;;;;;;95.57;90.88;;;;;;;;;;5043953;28;20439;-58
2022/07/29 02:00:05;;;;;;;92.95;88.10;;;;;;;;;;5047149;28;20031;-58
2022/07/29 02:02:32;;;;;;;106.00;100.82;;;;;;;;;;5044019;28;20063;-58
2022/07/29 02:04:59;;;;;;;99.13;94.28;;;;;;;;;;5042797;28;20048;-58
2022/07/29 02:07:28;;;;;;;112.57;107.05;;;;;;;;;;5043680;28;20045;-58
2022/07/29 02:09:55;;;;;;;99.93;94.93;;;;;;;;;;5046971;28;20043;-58
2022/07/29 02:12:21;;;;;;;102.82;97.75;;;;;;;;;;5039710;28;20418;-58
2022/07/29 02:14:52;;;;;;;103.72;98.60;;;;;;;;;;5042191;28;20124;-58
2022/07/29 02:17:24;;;;;;;107.05;101.63;;;;;;;;;;5041480;28;20079;-58
2022/07/29 02:19:52;;;;;;;102.20;97.15;;;;;;;;;;5043753;28;20033;-58
2022/07/29 02:22:19;;;;;;;101.18;96.22;;;;;;;;;;5041959;28;20116;-58
2022/07/29 02:24:46;;;;;;;107.97;102.68;;;;;;;;;;5043039;28;20111;-58
2022/07/29 02:27:13;;;;;;;109.38;103.97;;;;;;;;;;5041124;28;20488;-58
2022/07/29 02:29:39;;;;;;;101.75;96.72;;;;;;;;;;5038487;28;20036;-58
2022/07/29 02:32:08;;;;;;;107.25;102.00;;;;;;;;;;5042415;28;20051;-58
2022/07/29 02:34:37;;;;;;;98.18;93.35;;;;;;;;;;5043006;28;20108;-58
2022/07/29 02:37:03;;;;;;;99.93;95.00;;;;;;;;;;5040939;28;20490;-58
2022/07/29 02:39:29;;;;;;;109.63;104.25;;;;;;;;;;5042446;28;20017;-58
2022/07/29 02:42:05;;;;;;;103.65;98.55;;;;;;;;;;5042766;28;20077;-58
2022/07/29 02:44:32;;;;;;;102.40;97.38;;;;;;;;;;5042670;28;20107;-58
2022/07/29 02:47:09;;;;;;;91.45;86.95;;;;;;;;;;5038207;28;20033;-66
2022/07/29 02:50:02;;;;;;;89.97;85.55;;;;;;;;;;5042910;28;20056;-66
2022/07/29 02:53:02;;;;;;;82.70;78.18;;;;;;;;;;5040402;28;20210;-66
2022/07/29 02:55:52;;;;;;;74.15;70.47;;;;;;;;;;5041838;28;20022;-66
2022/07/29 02:58:34;;;;;;;77.47;73.65;;;;;;;;;;5041398;28;20025;-65
2022/07/29 03:01:07;;;;;;;73.53;69.88;;;;;;;;;;5043112;28;20033;-66
2022/07/29 03:03:37;;;;;;;62.03;58.90;;;;;;;;;;5043745;28;20033;-66
2022/07/29 03:06:03;;;;;;;63.50;60.35;;;;;;;;;;5036330;28;20116;-66
2022/07/29 03:08:30;;;;;;;59.20;55.13;;;;;;;;;;5039346;28;20029;-66
2022/07/29 03:10:56;;;;;;;52.60;49.90;;;;;;;;;;5038112;28;20039;-66
2022/07/29 03:13:22;;;;;;;51.58;48.97;;;;;;;;;;5042933;28;20459;-66
2022/07/29 03:15:48;;;;;;;53.65;50.95;;;;;;;;;;5041789;28;20449;-66
2022/07/29 03:18:15;;;;;;;57.50;54.60;;;;;;;;;;5041518;28;20041;-66
2022/07/29 03:20:40;;;;;;;49.22;46.72;;;;;;;;;;5042282;28;20480;-66
2022/07/29 03:23:07;;;;;;;50.92;48.33;;;;;;;;;;5040141;28;20128;-66
2022/07/29 03:25:32;;;;;;;47.28;44.88;;;;;;;;;;5039839;28;20033;-66
2022/07/29 03:27:58;;;;;;;51.08;48.45;;;;;;;;;;5042306;28;20024;-66
2022/07/29 03:30:24;;;;;;;49.97;47.45;;;;;;;;;;5041984;28;20518;-66
2022/07/29 03:32:51;;;;;;;48.92;46.45;;;;;;;;;;5043968;28;20321;-66
2022/07/29 03:35:16;;;;;;;40.45;38.35;;;;;;;;;;5040422;28;20021;-66
2022/07/29 03:37:42;;;;;;;47.40;45.00;;;;;;;;;;5039684;28;20416;-66
2022/07/29 03:40:11;;;;;;;46.55;43.45;;;;;;;;;;5037350;28;20447;-65
2022/07/29 03:42:39;;;;;;;47.90;45.45;;;;;;;;;;5039464;28;20124;-66
2022/07/29 03:45:12;;;;;;;48.05;45.65;;;;;;;;;;5040369;28;20116;-65
2022/07/29 03:47:42;;;;;;;47.60;45.20;;;;;;;;;;5040254;28;20044;-65
2022/07/29 03:50:10;;;;;;;46.35;43.95;;;;;;;;;;5043476;28;20443;-64
2022/07/29 03:52:35;;;;;;;47.97;45.58;;;;;;;;;;5039786;28;20051;-65
2022/07/29 03:55:02;;;;;;;44.30;42.00;;;;;;;;;;5040351;28;20100;-65
2022/07/29 03:57:30;;;;;;;45.22;42.90;;;;;;;;;;5038724;28;20029;-65
2022/07/29 03:59:56;;;;;;;43.92;41.72;;;;;;;;;;5040916;28;20470;-66
2022/07/29 04:02:23;;;;;;;39.63;37.63;;;;;;;;;;5036328;28;20037;-65
2022/07/29 04:04:48;;;;;;;41.13;39.03;;;;;;;;;;5037986;28;20025;-65
2022/07/29 04:07:15;;;;;;;40.85;38.72;;;;;;;;;;5042023;28;20089;-65
2022/07/29 04:09:41;;;;;;;39.97;37.95;;;;;;;;;;5038421;28;20396;-65
2022/07/29 04:12:07;;;;;;;41.63;39.50;;;;;;;;;;5040278;28;20021;-65
2022/07/29 04:14:34;;;;;;;40.75;38.65;;;;;;;;;;5032761;28;20099;-65
2022/07/29 04:17:01;;;;;;;44.53;42.10;;;;;;;;;;5040613;28;20071;-67
2022/07/29 04:19:26;;;;;;;40.95;38.85;;;;;;;;;;5040016;28;20471;-65
2022/07/29 04:21:51;;;;;;;35.08;33.28;;;;;;;;;;5038679;28;20060;-65
2022/07/29 04:24:17;;;;;;;35.67;33.83;;;;;;;;;;5043232;28;20031;-65
2022/07/29 04:26:42;;;;;;;43.30;41.10;;;;;;;;;;5039435;28;20045;-66
2022/07/29 04:29:08;;;;;;;47.35;44.95;;;;;;;;;;5042579;28;20183;-66
2022/07/29 04:31:33;;;;;;;40.78;38.67;;;;;;;;;;5037664;28;20032;-66
2022/07/29 04:33:59;;;;;;;41.10;38.97;;;;;;;;;;5043010;28;20064;-65
2022/07/29 04:36:24;;;;;;;50.72;48.15;;;;;;;;;;5040130;28;20336;-65
2022/07/29 04:38:49;;;;;;;39.72;37.65;;;;;;;;;;5037008;28;20489;-65
2022/07/29 04:41:15;;;;;;;51.60;48.97;;;;;;;;;;5040179;28;20091;-65
2022/07/29 04:43:40;;;;;;;42.83;40.63;;;;;;;;;;5038521;28;20033;-65
2022/07/29 04:46:06;;;;;;;41.03;38.92;;;;;;;;;;5037491;28;20082;-65
2022/07/29 04:48:31;;;;;;;47.30;44.90;;;;;;;;;;5036542;28;20349;-65
2022/07/29 04:50:57;;;;;;;44.60;42.30;;;;;;;;;;5040102;28;20039;-65
2022/07/29 04:53:23;;;;;;;39.40;37.30;;;;;;;;;;5040058;28;20087;-65
2022/07/29 04:55:48;;;;;;;44.88;42.58;;;;;;;;;;5035684;28;20083;-65
2022/07/29 04:58:13;;;;;;;47.67;45.28;;;;;;;;;;5038067;28;20043;-65
2022/07/29 05:00:39;;;;;;;43.75;41.53;;;;;;;;;;5039533;28;20071;-65
2022/07/29 05:03:04;;;;;;;45.72;43.38;;;;;;;;;;5040785;28;20235;-65
2022/07/29 05:05:30;;;;;;;53.97;51.20;;;;;;;;;;5039377;28;20486;-65
2022/07/29 05:07:56;;;;;;;54.83;51.67;;;;;;;;;;5039834;28;20439;-64
2022/07/29 05:10:21;;;;;;;48.28;45.83;;;;;;;;;;5041278;28;20045;-64
2022/07/29 05:12:47;;;;;;;41.15;39.05;;;;;;;;;;5039952;28;20094;-64
2022/07/29 05:15:12;;;;;;;48.88;46.38;;;;;;;;;;5038699;28;20040;-64
2022/07/29 05:17:37;;;;;;;44.13;41.88;;;;;;;;;;5037696;28;20459;-63
2022/07/29 05:20:04;;;;;;;38.08;36.08;;;;;;;;;;5034730;28;20025;-64
2022/07/29 05:22:29;;;;;;;34.35;32.55;;;;;;;;;;5036559;28;20450;-64
2022/07/29 05:24:55;;;;;;;31.98;30.30;;;;;;;;;;5037479;28;20036;-64
2022/07/29 05:27:20;;;;;;;34.47;32.67;;;;;;;;;;5042654;28;20036;-64
2022/07/29 05:29:45;;;;;;;35.67;33.78;;;;;;;;;;5038755;28;20044;-64
2022/07/29 05:32:11;;;;;;;34.92;33.13;;;;;;;;;;5039893;28;20044;-63
2022/07/29 05:34:37;;;;;;;34.83;33.00;;;;;;;;;;5038085;28;20044;-63
2022/07/29 05:37:02;;;;;;;35.97;34.13;;;;;;;;;;5038701;28;20032;-63
2022/07/29 05:39:27;;;;;;;38.50;36.50;;;;;;;;;;5043890;28;20028;-64
2022/07/29 05:41:53;;;;;;;34.95;33.15;;;;;;;;;;5043559;28;20232;-64
2022/07/29 05:44:18;;;;;;;34.75;32.95;;;;;;;;;;5040710;28;20041;-63
2022/07/29 05:46:43;;;;;;;35.53;33.42;;;;;;;;;;5041210;28;20033;-63
2022/07/29 05:49:08;;;;;;;38.83;36.83;;;;;;;;;;5037678;28;20454;-63
2022/07/29 05:51:34;;;;;;;38.55;36.58;;;;;;;;;;5039057;28;20174;-63
2022/07/29 05:54:00;;;;;;;46.00;43.65;;;;;;;;;;5040083;28;20089;-64
2022/07/29 05:56:25;;;;;;;38.67;36.65;;;;;;;;;;5041980;28;20577;-64
2022/07/29 05:58:51;;;;;;;49.03;46.55;;;;;;;;;;5043910;28;20037;-64
2022/07/29 06:01:18;;;;;;;48.53;46.05;;;;;;;;;;5040051;28;20041;-64
2022/07/29 06:03:43;;;;;;;45.75;43.25;;;;;;;;;;5040886;28;20033;-64
2022/07/29 06:06:09;;;;;;;44.88;42.58;;;;;;;;;;5039262;28;20104;-64
2022/07/29 06:08:36;;;;;;;47.58;45.17;;;;;;;;;;5038865;28;20209;-63
2022/07/29 06:11:02;;;;;;;49.42;46.92;;;;;;;;;;5040423;28;20032;-63
2022/07/29 06:13:27;;;;;;;61.58;58.38;;;;;;;;;;5039500;28;20028;-64
2022/07/29 06:15:53;;;;;;;59.35;56.38;;;;;;;;;;5041826;28;20347;-63
2022/07/29 06:18:20;;;;;;;68.50;65.07;;;;;;;;;;5039631;28;20024;-63
2022/07/29 06:20:46;;;;;;;77.35;73.50;;;;;;;;;;5039298;28;20717;-63
2022/07/29 06:23:11;;;;;;;73.05;69.40;;;;;;;;;;5039961;28;20348;-62
2022/07/29 06:25:37;;;;;;;117.82;111.95;;;;;;;;;;5041653;28;20032;-63
2022/07/29 06:28:03;;;;;;;83.55;79.18;;;;;;;;;;5039736;28;20037;-63
2022/07/29 06:30:29;;;;;;;120.10;114.10;;;;;;;;;;5039677;28;20471;-63
2022/07/29 06:32:54;;;;;;;120.78;114.85;;;;;;;;;;5038935;28;20040;-63
2022/07/29 06:35:20;;;;;;;131.13;124.65;;;;;;;;;;5040874;28;20142;-62
2022/07/29 06:37:45;;;;;;;131.05;124.57;;;;;;;;;;5040614;28;20048;-63
2022/07/29 06:42:55;;;;;;;148.90;141.52;;;;;;;;;;5042186;28;20017;-63
2022/07/29 06:45:20;;;;;;;154.20;146.63;;;;;;;;;;5041621;28;20026;-63
2022/07/29 06:47:46;;;;;;;152.07;144.63;;;;;;;;;;5038482;28;20396;-62
2022/07/29 06:50:12;;;;;;;154.55;146.98;;;;;;;;;;5039044;28;20032;-63
2022/07/29 06:52:38;;;;;;;137.68;130.90;;;;;;;;;;5040036;28;20533;-63
2022/07/29 06:55:04;;;;;;;152.88;145.38;;;;;;;;;;5041898;28;20411;-63
2022/07/29 06:57:30;;;;;;;134.00;127.35;;;;;;;;;;5039414;28;20032;-64
2022/07/29 06:59:58;;;;;;;125.53;119.32;;;;;;;;;;5036740;28;20020;-64
2022/07/29 07:02:23;;;;;;;125.90;119.70;;;;;;;;;;5038806;28;20065;-64
2022/07/29 07:04:49;;;;;;;124.90;118.80;;;;;;;;;;5039174;28;20941;-63
2022/07/29 07:07:14;;;;;;;115.78;110.05;;;;;;;;;;5039325;28;20033;-63
2022/07/29 07:09:40;;;;;;;114.82;109.18;;;;;;;;;;5043486;28;20033;-63
2022/07/29 07:12:05;;;;;;;121.40;115.45;;;;;;;;;;5037169;28;20159;-63
2022/07/29 07:14:31;;;;;;;107.95;102.57;;;;;;;;;;5035166;28;20329;-63
2022/07/29 07:16:56;;;;;;;112.40;106.88;;;;;;;;;;5033706;28;20089;-63
2022/07/29 07:19:22;;;;;;;117.90;112.10;;;;;;;;;;5032945;28;20108;-63
2022/07/29 07:21:47;;;;;;;122.90;116.78;;;;;;;;;;5033236;28;20044;-64
2022/07/29 07:24:12;;;;;;;122.75;116.70;;;;;;;;;;5033550;28;20063;-63
2022/07/29 07:26:39;;;;;;;116.22;110.35;;;;;;;;;;5036620;28;20048;-62
2022/07/29 07:29:05;;;;;;;117.72;111.93;;;;;;;;;;5030816;28;20028;-63
2022/07/29 07:31:30;;;;;;;122.45;116.43;;;;;;;;;;5034221;28;20477;-63
2022/07/29 07:33:56;;;;;;;127.03;120.75;;;;;;;;;;5035704;28;20037;-64
2022/07/29 07:36:22;;;;;;;132.68;126.15;;;;;;;;;;5033540;28;20029;-63
2022/07/29 07:38:47;;;;;;;121.45;115.47;;;;;;;;;;5034902;28;20351;-63
2022/07/29 07:41:13;;;;;;;136.43;129.65;;;;;;;;;;5032413;28;20620;-63
2022/07/29 07:43:39;;;;;;;117.78;112.00;;;;;;;;;;5036375;28;20094;-64
2022/07/29 07:46:04;;;;;;;112.63;107.07;;;;;;;;;;5037681;28;20032;-64
2022/07/29 07:48:30;;;;;;;116.07;110.38;;;;;;;;;;5036298;28;20090;-64
2022/07/29 07:50:55;;;;;;;117.90;112.10;;;;;;;;;;5037450;28;20021;-63
2022/07/29 07:53:21;;;;;;;98.25;93.43;;;;;;;;;;5036656;28;20025;-65
2022/07/29 07:55:46;;;;;;;126.22;120.00;;;;;;;;;;5034009;28;20112;-65
2022/07/29 07:58:11;;;;;;;124.22;118.13;;;;;;;;;;5031174;28;20053;-65
2022/07/29 08:00:37;;;;;;;95.28;90.57;;;;;;;;;;5034385;28;20033;-65
2022/07/29 08:03:03;;;;;;;87.03;82.72;;;;;;;;;;5034751;28;20537;-64
2022/07/29 08:05:28;;;;;;;131.90;125.40;;;;;;;;;;5034524;28;20037;-64
2022/07/29 08:07:53;;;;;;;119.22;113.10;;;;;;;;;;5033812;28;20036;-65
2022/07/29 08:13:08;;;;;;;114.35;108.65;;;;;;;;;;5035503;28;20040;-65
2022/07/29 08:15:34;;;;;;;119.30;113.43;;;;;;;;;;5032017;28;20029;-66
2022/07/29 08:18:00;;;;;;;97.85;93.03;;;;;;;;;;5039109;28;20542;-65
2022/07/29 08:20:26;;;;;;;128.10;121.75;;;;;;;;;;5037957;28;20129;-65
2022/07/29 08:22:52;;;;;;;125.05;118.90;;;;;;;;;;5033327;28;20029;-65
2022/07/29 08:25:20;;;;;;;144.70;137.57;;;;;;;;;;5032174;28;20045;-65
2022/07/29 08:27:46;;;;;;;158.90;151.05;;;;;;;;;;5039719;28;20353;-65
2022/07/29 08:30:11;;;;;;;77.65;73.80;;;;;;;;;;5040974;28;20687;-66
2022/07/29 08:32:37;;;;;;;110.75;105.30;;;;;;;;;;5041164;28;20114;-64
2022/07/29 08:35:02;;;;;;;93.70;89.07;;;;;;;;;;5037620;28;20056;-65
2022/07/29 08:37:27;;;;;;;116.57;110.82;;;;;;;;;;5041004;28;20024;-66
2022/07/29 08:39:53;;;;;;;100.88;95.88;;;;;;;;;;5043349;28;20147;-64
2022/07/29 08:42:18;;;;;;;113.20;107.63;;;;;;;;;;5040546;28;20035;-65
2022/07/29 08:44:44;;;;;;;128.77;122.40;;;;;;;;;;5038273;28;20428;-65
2022/07/29 08:47:14;;;;;;;154.18;146.60;;;;;;;;;;5042508;28;20126;-64
2022/07/29 08:49:39;;;;;;;106.40;101.20;;;;;;;;;;5044508;28;20443;-64
2022/07/29 08:52:05;;;;;;;113.30;107.70;;;;;;;;;;5039363;28;20041;-66
2022/07/29 08:54:30;;;;;;;95.75;91.00;;;;;;;;;;5039037;28;20120;-65
2022/07/29 08:56:57;;;;;;;112.53;107.03;;;;;;;;;;5037574;28;20025;-65
2022/07/29 08:59:26;;;;;;;65.78;62.47;;;;;;;;;;5038923;28;20061;-65
2022/07/29 09:01:53;;;;;;;53.22;50.42;;;;;;;;;;5037531;28;20331;-65
2022/07/29 09:04:20;;;;;;;82.53;78.43;;;;;;;;;;5035421;28;20025;-65
2022/07/29 09:06:48;;;;;;;72.38;68.78;;;;;;;;;;5039982;28;20111;-64
2022/07/29 09:09:13;;;;;;;87.40;83.10;;;;;;;;;;5041314;28;20247;-66
2022/07/29 09:11:39;;;;;;;56.33;53.50;;;;;;;;;;5047343;28;20045;-65
2022/07/29 09:14:05;;;;;;;116.15;110.45;;;;;;;;;;5051099;28;20679;-66
2022/07/29 09:16:51;;;;;;;92.35;87.80;;;;;;;;;;5046777;28;20096;-67
2022/07/29 09:19:26;;;;;;;133.13;126.55;;;;;;;;;;5043394;28;20036;-64
2022/07/29 09:21:59;;;;;;;145.57;138.30;;;;;;;;;;5042480;28;20060;-64
2022/07/29 09:24:46;;;;;;;134.27;127.65;;;;;;;;;;5045028;28;20021;-64
2022/07/29 09:27:23;;;;;;;101.40;96.40;;;;;;;;;;5036019;28;20116;-63
2022/07/29 09:30:05;;;;;;;90.38;85.90;;;;;;;;;;5038683;28;20045;-64
2022/07/29 09:32:31;;;;;;;92.13;87.53;;;;;;;;;;5038612;28;20470;-65
2022/07/29 09:35:20;;;;;;;77.82;73.93;;;;;;;;;;5041647;28;20032;-64
2022/07/29 09:37:46;;;;;;;75.40;71.63;;;;;;;;;;5043875;28;20021;-64
2022/07/29 09:40:26;;;;;;;117.55;111.80;;;;;;;;;;5042777;28;20167;-64
2022/07/29 09:42:55;;;;;;;102.93;97.88;;;;;;;;;;5040408;28;20055;-66
2022/07/29 09:45:31;;;;;;;146.15;138.98;;;;;;;;;;5044841;28;20140;-65
2022/07/29 09:48:00;;;;;;;88.13;83.78;;;;;;;;;;5044496;28;20036;-67
2022/07/29 09:50:39;;;;;;;103.53;98.45;;;;;;;;;;5043406;28;20111;-65
2022/07/29 09:53:05;;;;;;;108.95;103.63;;;;;;;;;;5041425;28;20079;-63
2022/07/29 09:55:31;;;;;;;106.65;101.40;;;;;;;;;;5051355;28;20490;-64
2022/07/29 09:58:16;;;;;;;118.93;113.05;;;;;;;;;;5051561;28;20542;-64
2022/07/29 10:00:42;;;;;;;128.73;122.38;;;;;;;;;;5038633;28;20036;-64
2022/07/29 10:03:08;;;;;;;135.82;129.13;;;;;;;;;;5041113;28;20039;-64
2022/07/29 10:05:33;;;;;;;147.43;139.25;;;;;;;;;;5040499;28;20036;-63
2022/07/29 10:07:58;;;;;;;140.80;133.90;;;;;;;;;;5038086;28;20075;-65
2022/07/29 10:10:24;;;;;;;154.52;146.82;;;;;;;;;;5040355;28;20386;-64
2022/07/29 10:13:00;;;;;;;177.18;168.50;;;;;;;;;;5043309;28;20446;-65
2022/07/29 10:15:28;;;;;;;172.52;164.10;;;;;;;;;;5042665;28;20033;-64
2022/07/29 10:17:55;;;;;;;159.88;151.95;;;;;;;;;;5037139;28;20096;-65
2022/07/29 10:20:22;;;;;;;150.85;143.38;;;;;;;;;;5046237;28;20037;-65
2022/07/29 10:22:49;;;;;;;163.25;155.20;;;;;;;;;;5042577;28;20787;-65
2022/07/29 10:25:15;;;;;;;166.95;158.43;;;;;;;;;;5037088;28;20529;-64
2022/07/29 10:27:42;;;;;;;166.50;158.27;;;;;;;;;;5040908;28;20125;-65
2022/07/29 10:30:08;;;;;;;176.25;167.57;;;;;;;;;;5045261;28;20119;-65
2022/07/29 10:33:05;;;;;;;168.93;160.63;;;;;;;;;;5042305;28;20032;-65
2022/07/29 10:35:52;;;;;;;179.32;170.52;;;;;;;;;;5040738;28;20399;-65
2022/07/29 10:38:52;;;;;;;167.95;159.57;;;;;;;;;;5039496;28;20115;-65
2022/07/29 10:41:26;;;;;;;127.18;120.90;;;;;;;;;;5035765;28;20047;-67
2022/07/29 10:44:02;;;;;;;164.73;156.60;;;;;;;;;;5042813;28;20068;-65
2022/07/29 10:46:27;;;;;;;144.23;137.10;;;;;;;;;;5041567;28;20033;-66
2022/07/29 10:49:06;;;;;;;122.68;116.63;;;;;;;;;;5042172;28;20052;-67
2022/07/29 10:51:50;;;;;;;126.53;117.53;;;;;;;;;;5040692;28;20026;-67
2022/07/29 10:54:36;;;;;;;121.60;115.60;;;;;;;;;;5039641;28;20812;-66
2022/07/29 10:57:20;;;;;;;140.27;133.30;;;;;;;;;;5039136;28;20959;-66
2022/07/29 10:59:51;;;;;;;132.45;125.85;;;;;;;;;;5041151;28;20499;-67
2022/07/29 11:02:32;;;;;;;120.32;114.32;;;;;;;;;;5045012;28;20433;-67
2022/07/29 11:04:57;;;;;;;118.40;112.55;;;;;;;;;;5044350;28;20083;-66
2022/07/29 11:07:23;;;;;;;141.55;134.55;;;;;;;;;;5044478;28;20037;-67
2022/07/29 11:10:14;;;;;;;136.70;129.93;;;;;;;;;;5040385;28;20026;-67
2022/07/29 11:12:42;;;;;;;145.63;138.45;;;;;;;;;;5041280;28;20029;-67
2022/07/29 11:15:12;;;;;;;152.82;145.23;;;;;;;;;;5043735;28;20592;-66
2022/07/29 11:17:52;;;;;;;;;;;;;;;;;;5041195;28;20756;-67
2022/07/29 11:20:33;;;;;;;144.60;137.45;;;;;;;;;;5042179;28;19912;-66
2022/07/29 11:23:00;;;;;;;126.65;120.40;;;;;;;;;;5039221;28;20029;-66
2022/07/29 11:25:25;;;;;;;128.95;122.55;;;;;;;;;;5041166;28;20041;-66
2022/07/29 11:27:53;;;;;;;143.35;136.25;;;;;;;;;;5041903;28;20045;-67
2022/07/29 11:30:19;;;;;;;138.57;131.68;;;;;;;;;;5036766;28;20618;-66
2022/07/29 11:32:46;;;;;;;133.73;127.13;;;;;;;;;;5036940;28;20060;-67
2022/07/29 11:35:24;;;;;;;130.50;124.05;;;;;;;;;;5041013;28;20063;-67
2022/07/29 11:38:22;;;;;;;143.20;135.98;;;;;;;;;;5040804;28;20079;-67
2022/07/29 11:41:25;;;;;;;164.50;156.38;;;;;;;;;;5036478;28;20462;-67
2022/07/29 11:43:52;;;;;;;136.50;129.32;;;;;;;;;;5037590;28;20027;-66
2022/07/29 11:46:48;;;;;;;111.53;106.00;;;;;;;;;;5041047;28;20102;-68
2022/07/29 11:49:22;;;;;;;116.47;110.60;;;;;;;;;;5042439;28;20781;-67
2022/07/29 11:51:52;;;;;;;129.95;123.53;;;;;;;;;;5040632;28;20033;-67
2022/07/29 11:54:23;;;;;;;;;;;;;;;;;;5039775;28;20040;-67
2022/07/29 11:56:49;;;;;;;153.00;145.40;;;;;;;;;;5043675;28;19947;-66
2022/07/29 11:59:15;;;;;;;158.90;151.02;;;;;;;;;;5040166;28;20514;-67
2022/07/29 12:01:52;;;;;;;128.32;121.97;;;;;;;;;;5038341;28;20057;-68
2022/07/29 12:04:17;;;;;;;108.72;103.38;;;;;;;;;;5042241;28;20040;-69
2022/07/29 12:06:42;;;;;;;127.80;121.38;;;;;;;;;;5044437;28;20037;-68
2022/07/29 12:09:08;;;;;;;145.50;138.30;;;;;;;;;;5037857;28;20045;-68
2022/07/29 12:11:33;;;;;;;148.90;141.55;;;;;;;;;;5038737;28;20037;-68
2022/07/29 12:13:59;;;;;;;120.55;114.63;;;;;;;;;;5037661;28;20029;-68
2022/07/29 12:16:35;;;;;;;117.28;111.45;;;;;;;;;;5036183;28;20025;-68
2022/07/29 12:19:02;;;;;;;121.47;115.45;;;;;;;;;;5038779;28;20495;-69
2022/07/29 12:21:28;;;;;;;129.68;123.28;;;;;;;;;;5038688;28;20116;-70
2022/07/29 12:23:55;;;;;;;139.95;133.02;;;;;;;;;;5039512;28;20499;-70
2022/07/29 12:26:20;;;;;;;118.28;112.43;;;;;;;;;;5037429;28;20021;-69
2022/07/29 12:28:46;;;;;;;137.50;130.68;;;;;;;;;;5038936;28;21463;-68
2022/07/29 12:31:16;;;;;;;120.53;114.53;;;;;;;;;;5040226;28;20577;-69
2022/07/29 12:33:41;;;;;;;;;;;;;;;;;;5041698;28;20049;-69
2022/07/29 12:36:07;;;;;;;97.43;92.60;;;;;;;;;;5038481;28;19920;-68
2022/07/29 12:38:34;;;;;;;110.65;105.18;;;;;;;;;;5039500;28;20037;-65
2022/07/29 12:41:00;;;;;;;113.20;107.57;;;;;;;;;;5041725;28;20078;-69
2022/07/29 12:43:25;;;;;;;124.88;118.68;;;;;;;;;;5039236;28;20025;-68
2022/07/29 12:45:55;;;;;;;141.05;134.07;;;;;;;;;;5037667;28;20461;-68
2022/07/29 12:48:38;;;;;;;109.32;103.95;;;;;;;;;;5036800;28;20036;-68
2022/07/29 12:51:05;;;;;;;107.15;101.88;;;;;;;;;;5039809;28;20571;-68
2022/07/29 12:53:31;;;;;;;122.25;116.20;;;;;;;;;;5038482;28;20033;-68
2022/07/29 12:56:01;;;;;;;126.47;120.22;;;;;;;;;;5039009;28;20025;-68
2022/07/29 12:58:38;;;;;;;121.32;115.28;;;;;;;;;;5040585;28;21127;-68
2022/07/29 13:01:12;;;;;;;108.97;103.57;;;;;;;;;;5040009;28;20536;-68
2022/07/29 13:03:53;;;;;;;125.72;119.53;;;;;;;;;;5039505;28;20037;-68
2022/07/29 13:06:38;;;;;;;125.32;119.13;;;;;;;;;;5040496;28;20025;-68
2022/07/29 13:09:18;;;;;;;105.75;100.53;;;;;;;;;;5037947;28;20111;-69
2022/07/29 13:11:49;;;;;;;124.20;118.05;;;;;;;;;;5040899;28;20029;-68
2022/07/29 13:14:33;;;;;;;122.32;116.25;;;;;;;;;;5041283;28;20025;-68
2022/07/29 13:17:07;;;;;;;120.57;114.68;;;;;;;;;;5029576;28;20040;-69
2022/07/29 13:19:40;;;;;;;110.10;104.65;;;;;;;;;;5034069;28;20044;-68
2022/07/29 13:22:10;;;;;;;108.10;102.78;;;;;;;;;;5037777;28;20029;-67
2022/07/29 13:24:50;;;;;;;121.15;115.15;;;;;;;;;;5039597;28;20029;-67
2022/07/29 13:27:21;;;;;;;118.00;112.15;;;;;;;;;;5038347;28;20029;-67
2022/07/29 13:29:48;;;;;;;108.22;102.90;;;;;;;;;;5053091;28;20034;-67
2022/07/29 13:32:14;;;;;;;134.23;127.47;;;;;;;;;;5038223;28;20048;-68
2022/07/29 13:34:40;;;;;;;114.68;109.00;;;;;;;;;;5040415;28;20053;-67
2022/07/29 13:37:06;;;;;;;102.85;97.78;;;;;;;;;;5036317;28;20032;-67
2022/07/29 13:39:31;;;;;;;128.65;122.25;;;;;;;;;;5037511;28;20017;-67
2022/07/29 13:41:56;;;;;;;126.88;120.63;;;;;;;;;;5040610;28;20029;-66
2022/07/29 13:44:22;;;;;;;109.57;104.20;;;;;;;;;;5037777;28;20051;-67
2022/07/29 13:46:47;;;;;;;124.20;118.07;;;;;;;;;;5040890;28;20033;-67
2022/07/29 13:49:13;;;;;;;105.63;100.28;;;;;;;;;;5037673;28;20038;-66
2022/07/29 13:51:38;;;;;;;116.80;111.03;;;;;;;;;;5034921;28;20098;-65
2022/07/29 13:54:04;;;;;;;106.45;101.22;;;;;;;;;;5041512;28;20115;-67
2022/07/29 13:56:30;;;;;;;101.03;96.05;;;;;;;;;;5040523;28;20026;-67
2022/07/29 13:58:55;;;;;;;117.97;112.13;;;;;;;;;;5041386;28;20370;-65
2022/07/29 14:01:21;;;;;;;111.32;105.78;;;;;;;;;;5043186;28;20040;-66
2022/07/29 14:03:46;;;;;;;127.90;121.57;;;;;;;;;;5041819;28;20450;-66
2022/07/29 14:06:11;;;;;;;105.78;100.55;;;;;;;;;;5039363;28;21787;-66
2022/07/29 14:08:37;;;;;;;109.32;103.93;;;;;;;;;;5041233;28;20092;-66
2022/07/29 14:11:03;;;;;;;121.13;115.13;;;;;;;;;;5040406;28;20090;-66
2022/07/29 14:13:28;;;;;;;119.93;114.00;;;;;;;;;;5044521;28;20056;-65
2022/07/29 14:15:53;;;;;;;132.52;125.97;;;;;;;;;;5041589;28;20100;-65
2022/07/29 14:18:19;;;;;;;117.60;111.75;;;;;;;;;;5039093;28;20031;-65
2022/07/29 14:20:44;;;;;;;125.82;119.60;;;;;;;;;;5036308;28;20477;-65